Àlex Marín

Scout - Villarreal
17 Feb 2028
Thursday
Process

Personality

Adaptability (12) Ambition (10) Controversy (1) Loyalty (11) Pressure (20) Professionalism (20) Sportsmanship (10) Temperament (7)

Profile

Coaching Style Democratic
License Continental A
Determination 6
Man Management 9
Motivating 15
Discipline 8
Job Satisfaction
58%
Fatigue
0%
Role Scout
Wage 19.0K p/w
Contract 14.03.2028

Performance

Behaviour Good
Training Effectiveness
30%
Player Development
35%
Injury Prevention
65%
Tactical Implementation
65%

Recent Events

Contract negotiation started now
Assessed a player now
Attended a recruitment meeting now
Attended a recruitment meeting now
Attended a recruitment meeting now
Attended a recruitment meeting now
Contract negotiation started now
Contract negotiation started 7d ago

Currently Monitoring

103
Player Club Status Ability Confidence Watched Last Observed Latest Vote
Marc Bernal Real Sociedad Active 155 / 150 40% 2 16.02.2028 -
Luca Williams-Barnett Tranmere Rovers Active 110 / 132 40% 2 16.02.2028 -
Archie Gray Derby County Active 161 / 156 40% 1 14.02.2028 -
Dmitry Pestryakov Dinamo Moscow Active 109 / 132 40% 1 14.02.2028 -
Shea Lacey Wolverhampton Active 143 / 138 40% 2 08.02.2028 -
Álex Marchal Real Sociedad Active 117 / 128 40% 1 08.02.2028 -
Mateo Peralta Danubio Active 100 / 116 40% 1 07.02.2028 -
Jofre Torrents Ajax Lost 123 / 137 40% 2 17.01.2028 -
Ronan Kpakio Cardiff City Lost 125 / 132 40% 1 17.01.2028 -
Álex Muñoz Almería Active 136 / 131 51% 1 10.01.2028 -
Alejandro Almaraz Nueva Chicago Active 114 / 112 40% 1 31.12.2027 -
Ricky Atletico Venezuela Active 103 / 97 40% 1 31.12.2027 -
Williams Mothiba Black Aces Active 81 / 99 40% 1 05.07.2027 -
Majid Vafaei Rah Ahan Active 114 / 108 40% 1 05.07.2027 -
Rodrigo Ely Almería Active 123 / 119 51% 1 21.06.2027 -
Christos Mouzakitis Hull City Active 133 / 133 40% 5 29.05.2027 -
William Gomes Porto Active 133 / 147 40% 2 24.05.2027 -
Matías Gómez Granada Active 108 / 126 40% 1 24.05.2027 -
Kevin Vazquez Cruz Azul Active 137 / 135 40% 8 22.05.2027 -
Senny Mayulu Paris Saint-Germain Active 135 / 146 40% 1 19.05.2027 -
Jan Virgili Club Brugge Active 137 / 132 40% 4 18.05.2027 -
Caleb Yirenkyi Coventry City Active 136 / 139 40% 4 18.05.2027 -
Zane Albarus Cambridge United Active 105 / 102 40% 1 18.05.2027 -
David Valencia Alianza Petrolera Active 138 / 137 40% 1 17.05.2027 -
Sascha Britschgi Padova Active 128 / 123 40% 1 17.05.2027 -
Lucas Høgsberg RC Strasbourg Active 136 / 143 40% 1 15.05.2027 -
Joel McGregor Swindon Town Active 85 / 100 40% 1 14.05.2027 -
Jorrel Hato Chelsea Active 143 / 151 40% 4 10.05.2027 -
Yusi Alavés Active 142 / 131 40% 1 10.05.2027 -
Gianluca Prestianni Benfica Active 145 / 135 40% 2 09.05.2027 -
Oscar Schwartau Norwich City Active 111 / 124 40% 2 09.05.2027 -
Lander Astiazarán Real Sociedad Active 105 / 111 67% 2 08.05.2027 Monitor
Josh King Chelsea Active 147 / 149 40% 1 06.05.2027 -
Noah Nartey Olympique Lyonnais Active 140 / 134 40% 1 06.05.2027 -
Othmane Maamma Watford Active 125 / 125 40% 3 05.05.2027 -
David Mella Deportivo La Coruña Active 142 / 130 40% 3 30.04.2027 -
Jayden Addai Como Active 145 / 137 40% 2 26.04.2027 -
João Simões Sporting CP Active 125 / 141 40% 1 25.04.2027 -
Mfundo Vilakazi Kaizer Chiefs Active 116 / 126 40% 1 25.04.2027 -
Jon Garro Real Sociedad Active 87 / 90 67% 1 24.04.2027 Monitor
Kazunari Kita Real Sociedad Active 94 / 104 40% 1 21.04.2027 -
Jonás Luna Santa Clara Active 107 / 122 40% 1 19.04.2027 -
Yan Diomandé Real Madrid Active 155 / 154 40% 3 18.04.2027 Monitor
Izan Merino Málaga Active 116 / 130 40% 1 18.04.2027 -
Olívio Tomé Benfica Active 112 / 115 40% 3 16.04.2027 -
Jesús Rodríguez Como Active 155 / 144 40% 1 16.04.2027 -
Matheus Gonçalves Al-Ahli Active 138 / 133 40% 2 15.04.2027 -
Luís Guilherme Sporting CP Active 133 / 133 40% 1 11.04.2027 -
Endrick Real Madrid Active 135 / 150 40% 1 08.04.2027 -
Cyriaque Irié VfL Wolfsburg Active 128 / 128 40% 1 08.04.2027 -
Samir El Mourabet RC Strasbourg Active 118 / 130 40% 1 04.04.2027 -
Nico O'Reilly Manchester City Active 161 / 155 40% 3 10.03.2027 -
Assane Diao Lazio Active 156 / 148 40% 1 04.03.2027 -
Malick Fofana Sunderland Active 136 / 144 40% 1 03.03.2027 -
Jan Oblak Atlético Madrid Active 167 / 163 40% 2 25.12.2026 -
Flavien-Enzo Boyomo Osasuna Active 143 / 149 40% 1 25.12.2026 -
Aitor Paredes Athletic Bilbao Active 148 / 151 40% 1 25.12.2026 -
Gianluigi Donnarumma Manchester City Active 165 / 170 40% 1 25.12.2026 -
José Ángel Carmona Sevilla Active 155 / 151 40% 3 21.12.2026 -
Marc Guéhi Manchester City Active 164 / 169 40% 1 21.12.2026 -
Fran García Betis Active 147 / 151 40% 1 20.12.2026 -
Erick Reyes Toluca Active 123 / 148 40% 4 19.12.2026 -
Álvaro Valles Betis Active 156 / 142 40% 1 17.12.2026 -
Declan Rice Arsenal Active 191 / 189 40% 4 16.12.2026 -
Aurélien Tchouaméni Real Madrid Active 163 / 166 40% 3 16.12.2026 -
Wesley Fofana Chelsea Active 153 / 162 40% 2 14.12.2026 -
Gavi Barcelona Active 168 / 167 40% 3 11.12.2026 -
Julen Agirrezabala Racing Santander Lost 147 / 146 40% 1 11.12.2026 -
Sandro Tonali Tottenham Active 169 / 170 40% 4 10.12.2026 -
Martín Zubimendi Arsenal Active 156 / 161 40% 1 10.12.2026 -
David Soria Getafe Active 137 / 138 40% 2 07.12.2026 -
Max O'Leary West Bromwich Albion Active 127 / 124 40% 1 06.12.2026 -
Unai Simón Athletic Bilbao Active 150 / 162 40% 1 05.12.2026 -
Tomás Marchiori Vélez Active 133 / 132 40% 2 02.12.2026 -
Alfonso Herrero Málaga Active 126 / 127 40% 3 02.12.2026 -
Alexis Mac Allister Liverpool Active 171 / 159 40% 3 27.11.2026 -
Conor Gallagher Tottenham Active 151 / 153 40% 2 25.11.2026 -
Antonio Sivera Alavés Active 154 / 145 40% 2 23.11.2026 -
Facundo Cambeses Racing Club Active 127 / 132 40% 2 21.11.2026 -
Senne Lammens Manchester United Active 153 / 152 40% 2 18.11.2026 -
David Raya Arsenal Active 153 / 162 40% 1 17.11.2026 -
Micky van de Ven Tottenham Active 164 / 153 40% 1 10.11.2026 -
Jorge Soto Aguilas Doradas Active 110 / 122 40% 1 10.11.2026 -
Eduardo Camavinga Real Madrid Active 162 / 166 40% 1 08.11.2026 -
Luis Ingolotti Atlético Tucumán Active 121 / 122 40% 1 07.11.2026 -
Enzo Fernández Manchester City Active 167 / 171 40% 3 04.11.2026 -
Adam Wharton Crystal Palace Active 156 / 158 40% 1 28.10.2026 -
Nico González Newcastle United Active 157 / 158 40% 6 27.10.2026 -
Jules Koundé Barcelona Active 159 / 154 40% 1 27.10.2026 -
Matthijs de Ligt Manchester United Active 151 / 156 40% 3 26.10.2026 -
Jan Paul van Hecke Tottenham Active 153 / 160 40% 5 25.10.2026 -
Vitinha Paris Saint-Germain Active 191 / 178 40% 2 25.10.2026 -
Ryan Gravenberch Liverpool Active 167 / 156 40% 1 23.10.2026 -
Moisés Caicedo Chelsea Active 160 / 166 40% 1 22.10.2026 -
Amadou Onana Aston Villa Active 162 / 158 40% 1 14.10.2026 -
Sven Botman Newcastle United Active 170 / 156 40% 1 08.10.2026 -
Morten Hjulmand Atlético Madrid Active 157 / 152 40% 2 06.10.2026 -
Johnny Cardoso Atlético Madrid Active 151 / 158 40% 2 02.10.2026 -
Dani Vivian Athletic Bilbao Active 156 / 151 40% 1 01.10.2026 -
Tino Livramento Newcastle United Active 141 / 152 40% 1 30.09.2026 -
Hector Ramirez Newcastle United Active 140 / 151 40% 1 26.09.2026 -
William Saliba Arsenal Active 176 / 175 40% 1 26.09.2026 -
Levi Colwill Chelsea Active 158 / 158 40% 1 18.09.2026 -